Airfield :
LOGIN :

Register | Disclaimer

   EN    FR    IT 

 










Legend :    VFR   Marginal VFR   IFR   Intensive IFR   Very Intensive IFR
Visi :
Ceiling :
>= 8 km
>= 3000ft
5 to 8 km
1000 to 3000 ft
1500m to 5 km
500 to 1000 ft
800 to 1500m
200 to 500 ft
< 800m
< 200 ft
Symbols :   Thunderstorms  Fog  Heavy snow  Heavy precipitations  Wind > 20 kt
SIGMETs :     Misc.  Thunderstorms  Icing  Turbulence  Mountain Waves  Volcanic Ashes







- Airport Elevation : 49 ft
- IATA code : SEN
- Download approach charts


EGMC - Southend

CURRENT METAR :
  • 200820Z 24020KT 9999 FEW010 BKN016 13/10 Q1001

EXPIRED METARs :
  • 200750Z 25018KT 9999 FEW010 SCT017 13/10 Q1001
  • 200720Z 24020KT 9999 VCSH FEW013 BKN017 13/09 Q1000
  • 200650Z 23019KT 9999 -DZ FEW010 BKN013 12/10 Q0999
  • 200620Z 22018KT 9999 -SHRA FEW008 BKN014 13/10 Q0999
  • 200550Z 21017KT 9999 VCSH FEW015 BKN017 13/10 Q0998

TAF TAF EGMC
Valid from the 20 at 09:00 until the 20 at 18:00 UTC


200756Z 2009/2018 23015KT 9999 FEW020
TEMPO 2009/2012 6000 -RADZ BKN010
PROB40
TEMPO 2009/2015 25018G28KT
PROB30
TEMPO 2012/2015 7000 BKN010
PROB30
TEMPO 2015/2018 25015G25KT
No reported NOTAMs for that airfield.
2 SIGMETs reported for the London FIR (EGTT) :
 
Severe turbulence
EGTT SIGMET 03 VALID 200700/201100 EGRR
EGTT LONDON FIR SEV TURB OBS WI N5130 E00200 - N5107 E00200 - N5100 E00128 - N5040 E00128 - N5012 E00017 - N5440 W00420 - N5438 W00126 - N5139 E00207 - N5130 E00200 FL250/370 MOV E 20KT NC=
Severe turbulence
EGTT SIGMET 02 VALID 200730/201130 EGRR
EGTT LONDON FIR SEV TURB FCST S OF LINE N4937 W00800 - N5125 E00200 SFC/FL060 MOV ESE 15KT NC=



MET'MAP, your aeronautical weather chart ! - Copyright ORBIFLY December 2007 - Disclaimer

ORBIFLY MET'MAP TEAM :

Programming & Development : Alexandra Zaïnal
Concept & Development : Baudouin d'Aumeries
Co-Development & Prog : Marc-Olivier Méhu
Technical & hardware support : Manuel Goepfert

Contact : metmap@orbifly.com




SOURCES & CREDITS :

   NOAA